sensor_id;sensor_type;location;lat;lon;timestamp;P1;durP1;ratioP1;P2;durP2;ratioP2
30335;SDS011;17142;47.990;7.846;2023-02-15T05:27:48;24.27;;;16.08;;
30335;SDS011;17142;47.990;7.846;2023-02-15T05:30:32;24.80;;;15.18;;
30335;SDS011;17142;47.990;7.846;2023-02-15T05:32:59;21.23;;;14.57;;
30335;SDS011;17142;47.990;7.846;2023-02-15T05:35:27;21.38;;;14.45;;
30335;SDS011;17142;47.990;7.846;2023-02-15T05:37:57;23.80;;;14.20;;
30335;SDS011;17142;47.990;7.846;2023-02-15T05:40:23;23.45;;;13.25;;
30335;SDS011;17142;47.990;7.846;2023-02-15T05:42:49;28.67;;;13.93;;
30335;SDS011;17142;47.990;7.846;2023-02-15T05:45:14;25.77;;;14.70;;
30335;SDS011;17142;47.990;7.846;2023-02-15T05:47:42;26.70;;;14.35;;
30335;SDS011;17142;47.990;7.846;2023-02-15T05:50:11;24.53;;;14.00;;
30335;SDS011;17142;47.990;7.846;2023-02-15T05:52:36;19.27;;;13.50;;
30335;SDS011;17142;47.990;7.846;2023-02-15T05:55:02;24.17;;;13.97;;
30335;SDS011;17142;47.990;7.846;2023-02-15T05:57:34;19.23;;;14.40;;
30335;SDS011;17142;47.990;7.846;2023-02-15T06:00:00;18.17;;;13.10;;
30335;SDS011;17142;47.990;7.846;2023-02-15T06:02:29;21.88;;;13.77;;
30335;SDS011;17142;47.990;7.846;2023-02-15T06:04:55;23.80;;;14.17;;
30335;SDS011;17142;47.990;7.846;2023-02-15T06:07:20;24.80;;;13.23;;
30335;SDS011;17142;47.990;7.846;2023-02-15T06:09:48;23.85;;;14.00;;
30335;SDS011;17142;47.990;7.846;2023-02-15T06:12:13;20.47;;;15.10;;
30335;SDS011;17142;47.990;7.846;2023-02-15T06:14:39;24.00;;;14.77;;
30335;SDS011;17142;47.990;7.846;2023-02-15T06:17:05;23.37;;;14.73;;
30335;SDS011;17142;47.990;7.846;2023-02-15T06:19:31;22.27;;;14.85;;
30335;SDS011;17142;47.990;7.846;2023-02-15T06:21:57;25.70;;;15.97;;
30335;SDS011;17142;47.990;7.846;2023-02-15T06:24:22;25.33;;;15.20;;
30335;SDS011;17142;47.990;7.846;2023-02-15T06:26:48;25.57;;;14.60;;
30335;SDS011;17142;47.990;7.846;2023-02-15T06:29:16;26.10;;;15.18;;
30335;SDS011;17142;47.990;7.846;2023-02-15T06:31:44;22.47;;;14.77;;
30335;SDS011;17142;47.990;7.846;2023-02-15T06:34:09;27.13;;;15.13;;
30335;SDS011;17142;47.990;7.846;2023-02-15T06:36:37;24.47;;;15.27;;
30335;SDS011;17142;47.990;7.846;2023-02-15T06:39:03;24.88;;;14.75;;
30335;SDS011;17142;47.990;7.846;2023-02-15T06:41:29;18.67;;;13.13;;
30335;SDS011;17142;47.990;7.846;2023-02-15T06:43:55;22.33;;;13.80;;
30335;SDS011;17142;47.990;7.846;2023-02-15T06:46:20;20.43;;;12.07;;
30335;SDS011;17142;47.990;7.846;2023-02-15T06:48:46;20.27;;;12.87;;
30335;SDS011;17142;47.990;7.846;2023-02-15T06:51:12;17.60;;;12.43;;
30335;SDS011;17142;47.990;7.846;2023-02-15T06:53:37;21.20;;;13.27;;
30335;SDS011;17142;47.990;7.846;2023-02-15T06:56:06;21.85;;;13.75;;
30335;SDS011;17142;47.990;7.846;2023-02-15T06:58:34;20.98;;;14.80;;
30335;SDS011;17142;47.990;7.846;2023-02-15T07:01:00;19.85;;;13.95;;
30335;SDS011;17142;47.990;7.846;2023-02-15T07:03:26;21.97;;;15.33;;
30335;SDS011;17142;47.990;7.846;2023-02-15T07:05:55;22.42;;;14.05;;
30335;SDS011;17142;47.990;7.846;2023-02-15T07:08:21;25.08;;;15.23;;
30335;SDS011;17142;47.990;7.846;2023-02-15T07:10:48;20.50;;;14.43;;
30335;SDS011;17142;47.990;7.846;2023-02-15T07:13:15;18.45;;;13.00;;
30335;SDS011;17142;47.990;7.846;2023-02-15T07:15:40;24.63;;;14.30;;
30335;SDS011;17142;47.990;7.846;2023-02-15T07:18:06;20.60;;;13.40;;
30335;SDS011;17142;47.990;7.846;2023-02-15T07:20:32;22.13;;;14.70;;
30335;SDS011;17142;47.990;7.846;2023-02-15T07:23:00;16.90;;;12.90;;
30335;SDS011;17142;47.990;7.846;2023-02-15T07:25:26;23.70;;;15.50;;
30335;SDS011;17142;47.990;7.846;2023-02-15T07:27:58;20.30;;;15.17;;
30335;SDS011;17142;47.990;7.846;2023-02-15T07:30:26;26.23;;;18.13;;
30335;SDS011;17142;47.990;7.846;2023-02-15T07:32:56;25.75;;;17.02;;
30335;SDS011;17142;47.990;7.846;2023-02-15T07:35:47;23.50;;;16.27;;
30335;SDS011;17142;47.990;7.846;2023-02-15T07:38:19;22.73;;;15.00;;
30335;SDS011;17142;47.990;7.846;2023-02-15T07:40:47;26.87;;;16.60;;
30335;SDS011;17142;47.990;7.846;2023-02-15T07:43:13;24.27;;;16.37;;
30335;SDS011;17142;47.990;7.846;2023-02-15T07:45:39;19.00;;;13.57;;
30335;SDS011;17142;47.990;7.846;2023-02-15T07:48:05;19.37;;;14.30;;
30335;SDS011;17142;47.990;7.846;2023-02-15T07:50:31;21.93;;;15.37;;
30335;SDS011;17142;47.990;7.846;2023-02-15T07:52:57;16.87;;;12.17;;
30335;SDS011;17142;47.990;7.846;2023-02-15T07:55:23;19.93;;;13.00;;
30335;SDS011;17142;47.990;7.846;2023-02-15T07:57:51;17.13;;;13.23;;
30335;SDS011;17142;47.990;7.846;2023-02-15T08:00:19;19.53;;;11.93;;
30335;SDS011;17142;47.990;7.846;2023-02-15T08:02:53;19.50;;;12.80;;
30335;SDS011;17142;47.990;7.846;2023-02-15T08:05:38;17.70;;;12.00;;
30335;SDS011;17142;47.990;7.846;2023-02-15T08:08:05;15.17;;;12.00;;
30335;SDS011;17142;47.990;7.846;2023-02-15T08:10:32;19.73;;;13.80;;
30335;SDS011;17142;47.990;7.846;2023-02-15T08:13:17;19.53;;;13.50;;
30335;SDS011;17142;47.990;7.846;2023-02-15T08:15:49;24.37;;;15.70;;
30335;SDS011;17142;47.990;7.846;2023-02-15T08:18:15;21.73;;;15.33;;
30335;SDS011;17142;47.990;7.846;2023-02-15T08:20:41;26.03;;;15.73;;
30335;SDS011;17142;47.990;7.846;2023-02-15T08:23:09;21.93;;;15.20;;
30335;SDS011;17142;47.990;7.846;2023-02-15T08:25:34;22.63;;;16.47;;
30335;SDS011;17142;47.990;7.846;2023-02-15T08:28:05;21.97;;;14.03;;
30335;SDS011;17142;47.990;7.846;2023-02-15T08:30:33;23.40;;;14.10;;
30335;SDS011;17142;47.990;7.846;2023-02-15T08:32:58;21.57;;;15.10;;
30335;SDS011;17142;47.990;7.846;2023-02-15T08:35:24;29.90;;;16.93;;
30335;SDS011;17142;47.990;7.846;2023-02-15T08:37:52;23.30;;;14.60;;
30335;SDS011;17142;47.990;7.846;2023-02-15T08:40:17;24.40;;;14.97;;
30335;SDS011;17142;47.990;7.846;2023-02-15T08:42:43;25.83;;;15.03;;
30335;SDS011;17142;47.990;7.846;2023-02-15T08:45:11;18.30;;;13.20;;
30335;SDS011;17142;47.990;7.846;2023-02-15T08:47:37;23.73;;;14.10;;
30335;SDS011;17142;47.990;7.846;2023-02-15T08:50:05;25.53;;;16.47;;
30335;SDS011;17142;47.990;7.846;2023-02-15T08:52:31;22.73;;;14.60;;
30335;SDS011;17142;47.990;7.846;2023-02-15T08:54:56;24.23;;;15.30;;
30335;SDS011;17142;47.990;7.846;2023-02-15T08:57:24;31.03;;;15.60;;
30335;SDS011;17142;47.990;7.846;2023-02-15T08:59:50;24.27;;;14.50;;
30335;SDS011;17142;47.990;7.846;2023-02-15T09:02:16;26.07;;;15.30;;
30335;SDS011;17142;47.990;7.846;2023-02-15T09:04:41;19.67;;;14.60;;
30335;SDS011;17142;47.990;7.846;2023-02-15T09:07:07;20.93;;;12.73;;
30335;SDS011;17142;47.990;7.846;2023-02-15T09:09:33;24.70;;;15.10;;
30335;SDS011;17142;47.990;7.846;2023-02-15T09:12:01;25.50;;;14.83;;
30335;SDS011;17142;47.990;7.846;2023-02-15T09:14:27;23.97;;;15.50;;
30335;SDS011;17142;47.990;7.846;2023-02-15T09:16:53;21.93;;;13.93;;
30335;SDS011;17142;47.990;7.846;2023-02-15T09:19:19;21.97;;;14.03;;
30335;SDS011;17142;47.990;7.846;2023-02-15T09:21:48;29.60;;;16.50;;
30335;SDS011;17142;47.990;7.846;2023-02-15T09:24:14;29.03;;;17.57;;
30335;SDS011;17142;47.990;7.846;2023-02-15T09:26:42;19.77;;;14.77;;
30335;SDS011;17142;47.990;7.846;2023-02-15T09:29:10;24.97;;;17.87;;
30335;SDS011;17142;47.990;7.846;2023-02-15T09:31:37;27.90;;;15.03;;
30335;SDS011;17142;47.990;7.846;2023-02-15T09:34:08;21.93;;;15.07;;
30335;SDS011;17142;47.990;7.846;2023-02-15T09:36:36;17.93;;;13.53;;
30335;SDS011;17142;47.990;7.846;2023-02-15T09:39:12;24.23;;;15.17;;
30335;SDS011;17142;47.990;7.846;2023-02-15T09:47:03;17.53;;;13.60;;
30335;SDS011;17142;47.990;7.846;2023-02-15T09:57:41;21.67;;;13.70;;
30335;SDS011;17142;47.990;7.846;2023-02-15T10:08:27;23.27;;;15.10;;
30335;SDS011;17142;47.990;7.846;2023-02-15T10:17:08;24.63;;;15.90;;
30335;SDS011;17142;47.990;7.846;2023-02-15T10:19:55;21.73;;;15.77;;
30335;SDS011;17142;47.990;7.846;2023-02-15T10:22:55;26.20;;;16.93;;
30335;SDS011;17142;47.990;7.846;2023-02-15T10:25:31;28.40;;;18.07;;
30335;SDS011;17142;47.990;7.846;2023-02-15T10:28:05;24.33;;;17.30;;
30335;SDS011;17142;47.990;7.846;2023-02-15T10:30:41;25.20;;;16.00;;
30335;SDS011;17142;47.990;7.846;2023-02-15T10:44:02;33.47;;;18.10;;
30335;SDS011;17142;47.990;7.846;2023-02-15T11:06:30;26.03;;;16.23;;
30335;SDS011;17142;47.990;7.846;2023-02-15T11:08:59;24.60;;;18.73;;
30335;SDS011;17142;47.990;7.846;2023-02-15T11:14:10;30.70;;;18.60;;
30335;SDS011;17142;47.990;7.846;2023-02-15T11:16:57;29.83;;;17.03;;
30335;SDS011;17142;47.990;7.846;2023-02-15T11:19:33;24.87;;;16.40;;
30335;SDS011;17142;47.990;7.846;2023-02-15T11:22:03;20.87;;;16.93;;
30335;SDS011;17142;47.990;7.846;2023-02-15T11:24:31;25.83;;;16.13;;
30335;SDS011;17142;47.990;7.846;2023-02-15T11:27:03;19.33;;;14.03;;
30335;SDS011;17142;47.990;7.846;2023-02-15T11:30:03;17.53;;;14.17;;
30335;SDS011;17142;47.990;7.846;2023-02-15T11:32:37;21.10;;;15.23;;
30335;SDS011;17142;47.990;7.846;2023-02-15T11:37:50;19.80;;;14.67;;
30335;SDS011;17142;47.990;7.846;2023-02-15T11:40:21;22.57;;;16.70;;
30335;SDS011;17142;47.990;7.846;2023-02-15T11:42:54;20.43;;;16.10;;
30335;SDS011;17142;47.990;7.846;2023-02-15T11:45:30;19.70;;;15.23;;
30335;SDS011;17142;47.990;7.846;2023-02-15T11:47:57;21.73;;;15.07;;
30335;SDS011;17142;47.990;7.846;2023-02-15T11:50:31;19.60;;;14.83;;
30335;SDS011;17142;47.990;7.846;2023-02-15T11:53:19;17.47;;;15.03;;
30335;SDS011;17142;47.990;7.846;2023-02-15T11:55:46;22.33;;;16.33;;
30335;SDS011;17142;47.990;7.846;2023-02-15T11:58:21;20.47;;;14.83;;
30335;SDS011;17142;47.990;7.846;2023-02-15T12:01:15;20.97;;;15.70;;
30335;SDS011;17142;47.990;7.846;2023-02-15T12:04:06;21.33;;;14.53;;
30335;SDS011;17142;47.990;7.846;2023-02-15T12:07:09;18.17;;;15.10;;
30335;SDS011;17142;47.990;7.846;2023-02-15T12:12:42;19.83;;;16.07;;
30335;SDS011;17142;47.990;7.846;2023-02-15T12:15:09;20.80;;;14.90;;
30335;SDS011;17142;47.990;7.846;2023-02-15T12:20:07;20.07;;;14.43;;
30335;SDS011;17142;47.990;7.846;2023-02-15T12:23:11;20.20;;;15.00;;
30335;SDS011;17142;47.990;7.846;2023-02-15T12:25:43;18.43;;;15.30;;
30335;SDS011;17142;47.990;7.846;2023-02-15T12:28:33;23.00;;;14.37;;
30335;SDS011;17142;47.990;7.846;2023-02-15T12:31:10;21.80;;;15.47;;
30335;SDS011;17142;47.990;7.846;2023-02-15T12:33:48;18.40;;;14.70;;
30335;SDS011;17142;47.990;7.846;2023-02-15T12:36:24;19.60;;;14.90;;
30335;SDS011;17142;47.990;7.846;2023-02-15T12:41:44;21.37;;;15.77;;
30335;SDS011;17142;47.990;7.846;2023-02-15T12:44:25;20.77;;;15.47;;
30335;SDS011;17142;47.990;7.846;2023-02-15T12:47:16;22.80;;;15.53;;
30335;SDS011;17142;47.990;7.846;2023-02-15T12:52:32;18.90;;;14.20;;
30335;SDS011;17142;47.990;7.846;2023-02-15T12:57:43;23.17;;;15.37;;
30335;SDS011;17142;47.990;7.846;2023-02-15T13:02:44;17.17;;;14.27;;
30335;SDS011;17142;47.990;7.846;2023-02-15T13:05:32;26.70;;;17.77;;
30335;SDS011;17142;47.990;7.846;2023-02-15T13:08:08;38.97;;;16.60;;
30335;SDS011;17142;47.990;7.846;2023-02-15T13:10:37;17.60;;;13.97;;
30335;SDS011;17142;47.990;7.846;2023-02-15T13:13:23;15.80;;;13.17;;
30335;SDS011;17142;47.990;7.846;2023-02-15T13:15:53;19.87;;;13.17;;
30335;SDS011;17142;47.990;7.846;2023-02-15T13:20:55;20.50;;;13.80;;
30335;SDS011;17142;47.990;7.846;2023-02-15T13:23:27;20.80;;;15.80;;
30335;SDS011;17142;47.990;7.846;2023-02-15T13:25:58;22.97;;;16.37;;
30335;SDS011;17142;47.990;7.846;2023-02-15T13:28:35;19.00;;;15.77;;
30335;SDS011;17142;47.990;7.846;2023-02-15T13:31:04;17.50;;;14.80;;
30335;SDS011;17142;47.990;7.846;2023-02-15T13:33:38;21.57;;;16.13;;
30335;SDS011;17142;47.990;7.846;2023-02-15T13:41:33;24.17;;;16.40;;
30335;SDS011;17142;47.990;7.846;2023-02-15T13:49:53;24.10;;;15.70;;
30335;SDS011;17142;47.990;7.846;2023-02-15T13:52:35;18.30;;;14.60;;
30335;SDS011;17142;47.990;7.846;2023-02-15T13:55:30;21.73;;;14.77;;
30335;SDS011;17142;47.990;7.846;2023-02-15T14:01:10;20.80;;;14.50;;
30335;SDS011;17142;47.990;7.846;2023-02-15T14:30:44;20.70;;;15.33;;
30335;SDS011;17142;47.990;7.846;2023-02-15T14:35:56;20.57;;;15.63;;
30335;SDS011;17142;47.990;7.846;2023-02-15T14:49:30;26.10;;;18.23;;
30335;SDS011;17142;47.990;7.846;2023-02-15T14:52:10;21.87;;;14.83;;
30335;SDS011;17142;47.990;7.846;2023-02-15T14:59:38;20.60;;;15.53;;
30335;SDS011;17142;47.990;7.846;2023-02-15T15:04:35;20.20;;;14.87;;
30335;SDS011;17142;47.990;7.846;2023-02-15T15:07:28;20.83;;;16.20;;
30335;SDS011;17142;47.990;7.846;2023-02-15T15:15:52;18.33;;;15.37;;
30335;SDS011;17142;47.990;7.846;2023-02-15T15:18:01;21.17;;;15.30;;
30335;SDS011;17142;47.990;7.846;2023-02-15T15:20:47;19.23;;;15.20;;
30335;SDS011;17142;47.990;7.846;2023-02-15T15:25:58;18.30;;;14.50;;
30335;SDS011;17142;47.990;7.846;2023-02-15T15:39:48;19.97;;;14.37;;
30335;SDS011;17142;47.990;7.846;2023-02-15T15:50:40;17.57;;;13.87;;
30335;SDS011;17142;47.990;7.846;2023-02-15T15:53:18;18.60;;;15.60;;
30335;SDS011;17142;47.990;7.846;2023-02-15T15:55:47;23.57;;;14.93;;
30335;SDS011;17142;47.990;7.846;2023-02-15T15:58:16;19.60;;;13.57;;
30335;SDS011;17142;47.990;7.846;2023-02-15T16:03:14;20.53;;;15.37;;
30335;SDS011;17142;47.990;7.846;2023-02-15T16:05:50;20.90;;;15.87;;
30335;SDS011;17142;47.990;7.846;2023-02-15T16:08:26;21.90;;;15.40;;
30335;SDS011;17142;47.990;7.846;2023-02-15T16:10:51;20.40;;;16.27;;
30335;SDS011;17142;47.990;7.846;2023-02-15T16:13:17;20.53;;;15.00;;
30335;SDS011;17142;47.990;7.846;2023-02-15T16:15:46;29.70;;;16.47;;
30335;SDS011;17142;47.990;7.846;2023-02-15T16:18:17;21.40;;;16.60;;
30335;SDS011;17142;47.990;7.846;2023-02-15T16:20:49;24.10;;;16.10;;
30335;SDS011;17142;47.990;7.846;2023-02-15T16:28:56;23.13;;;15.23;;
30335;SDS011;17142;47.990;7.846;2023-02-15T16:31:24;21.67;;;14.83;;
30335;SDS011;17142;47.990;7.846;2023-02-15T16:33:52;27.97;;;17.70;;
30335;SDS011;17142;47.990;7.846;2023-02-15T16:36:24;21.93;;;15.33;;
30335;SDS011;17142;47.990;7.846;2023-02-15T16:41:24;23.47;;;16.30;;
30335;SDS011;17142;47.990;7.846;2023-02-15T16:43:59;21.33;;;16.50;;
30335;SDS011;17142;47.990;7.846;2023-02-15T16:46:36;22.60;;;17.60;;
30335;SDS011;17142;47.990;7.846;2023-02-15T16:49:27;20.47;;;14.83;;
30335;SDS011;17142;47.990;7.846;2023-02-15T16:52:03;23.93;;;16.00;;
30335;SDS011;17142;47.990;7.846;2023-02-15T16:54:31;22.97;;;18.30;;
30335;SDS011;17142;47.990;7.846;2023-02-15T16:56:57;23.77;;;17.33;;
30335;SDS011;17142;47.990;7.846;2023-02-15T17:02:00;22.83;;;16.87;;
30335;SDS011;17142;47.990;7.846;2023-02-15T17:04:30;23.17;;;17.93;;
30335;SDS011;17142;47.990;7.846;2023-02-15T17:07:02;26.93;;;18.20;;
30335;SDS011;17142;47.990;7.846;2023-02-15T17:09:30;26.03;;;17.40;;
30335;SDS011;17142;47.990;7.846;2023-02-15T17:11:57;27.80;;;19.47;;
30335;SDS011;17142;47.990;7.846;2023-02-15T17:14:30;26.97;;;20.27;;
30335;SDS011;17142;47.990;7.846;2023-02-15T17:17:15;28.37;;;19.50;;
30335;SDS011;17142;47.990;7.846;2023-02-15T17:19:47;25.37;;;17.50;;
30335;SDS011;17142;47.990;7.846;2023-02-15T17:22:20;25.97;;;17.83;;
30335;SDS011;17142;47.990;7.846;2023-02-15T17:24:48;30.90;;;20.23;;
30335;SDS011;17142;47.990;7.846;2023-02-15T17:27:25;28.70;;;19.00;;
30335;SDS011;17142;47.990;7.846;2023-02-15T17:29:57;30.00;;;20.90;;
30335;SDS011;17142;47.990;7.846;2023-02-15T17:32:28;26.20;;;18.67;;
30335;SDS011;17142;47.990;7.846;2023-02-15T17:40:05;27.13;;;18.37;;
30335;SDS011;17142;47.990;7.846;2023-02-15T17:42:52;24.63;;;17.00;;
30335;SDS011;17142;47.990;7.846;2023-02-15T17:45:19;24.40;;;17.33;;
30335;SDS011;17142;47.990;7.846;2023-02-15T17:47:46;21.60;;;16.73;;
30335;SDS011;17142;47.990;7.846;2023-02-15T17:50:23;26.33;;;16.77;;
30335;SDS011;17142;47.990;7.846;2023-02-15T17:52:51;21.20;;;15.87;;
30335;SDS011;17142;47.990;7.846;2023-02-15T17:55:21;20.13;;;15.10;;
30335;SDS011;17142;47.990;7.846;2023-02-15T17:58:00;24.53;;;18.60;;
30335;SDS011;17142;47.990;7.846;2023-02-15T18:00:28;22.47;;;18.00;;
30335;SDS011;17142;47.990;7.846;2023-02-15T18:03:17;26.23;;;19.00;;
30335;SDS011;17142;47.990;7.846;2023-02-15T18:06:01;29.30;;;20.57;;
30335;SDS011;17142;47.990;7.846;2023-02-15T18:08:47;28.40;;;19.90;;
30335;SDS011;17142;47.990;7.846;2023-02-15T18:11:34;35.40;;;21.83;;
30335;SDS011;17142;47.990;7.846;2023-02-15T18:14:00;28.87;;;18.47;;
30335;SDS011;17142;47.990;7.846;2023-02-15T18:16:36;27.47;;;18.57;;
30335;SDS011;17142;47.990;7.846;2023-02-15T18:19:09;20.80;;;15.30;;
30335;SDS011;17142;47.990;7.846;2023-02-15T18:21:41;20.70;;;15.90;;
30335;SDS011;17142;47.990;7.846;2023-02-15T18:24:13;17.70;;;13.50;;
30335;SDS011;17142;47.990;7.846;2023-02-15T18:26:43;19.37;;;14.97;;
30335;SDS011;17142;47.990;7.846;2023-02-15T18:29:09;19.13;;;14.20;;
30335;SDS011;17142;47.990;7.846;2023-02-15T18:31:35;19.53;;;14.80;;
30335;SDS011;17142;47.990;7.846;2023-02-15T18:34:01;18.97;;;14.03;;
30335;SDS011;17142;47.990;7.846;2023-02-15T18:36:32;19.47;;;13.90;;
30335;SDS011;17142;47.990;7.846;2023-02-15T18:39:12;18.10;;;11.40;;
30335;SDS011;17142;47.990;7.846;2023-02-15T18:42:12;15.93;;;12.80;;
30335;SDS011;17142;47.990;7.846;2023-02-15T18:44:48;13.20;;;11.63;;
30335;SDS011;17142;47.990;7.846;2023-02-15T18:47:17;13.33;;;10.43;;
30335;SDS011;17142;47.990;7.846;2023-02-15T18:49:47;14.53;;;10.03;;
30335;SDS011;17142;47.990;7.846;2023-02-15T18:52:14;14.10;;;10.40;;
30335;SDS011;17142;47.990;7.846;2023-02-15T18:54:41;14.03;;;10.73;;
30335;SDS011;17142;47.990;7.846;2023-02-15T18:57:14;14.27;;;11.10;;
30335;SDS011;17142;47.990;7.846;2023-02-15T18:59:40;11.60;;;9.30;;
30335;SDS011;17142;47.990;7.846;2023-02-15T19:02:15;14.70;;;10.53;;
30335;SDS011;17142;47.990;7.846;2023-02-15T19:04:44;18.77;;;12.50;;
30335;SDS011;17142;47.990;7.846;2023-02-15T19:07:14;12.77;;;10.90;;
30335;SDS011;17142;47.990;7.846;2023-02-15T19:09:54;16.57;;;10.70;;
30335;SDS011;17142;47.990;7.846;2023-02-15T19:12:22;11.63;;;10.00;;
30335;SDS011;17142;47.990;7.846;2023-02-15T19:14:48;14.30;;;11.50;;
30335;SDS011;17142;47.990;7.846;2023-02-15T19:17:17;11.43;;;10.03;;
30335;SDS011;17142;47.990;7.846;2023-02-15T19:19:45;10.40;;;9.00;;
30335;SDS011;17142;47.990;7.846;2023-02-15T19:22:15;12.10;;;9.00;;
30335;SDS011;17142;47.990;7.846;2023-02-15T19:25:00;9.70;;;8.30;;
30335;SDS011;17142;47.990;7.846;2023-02-15T19:27:30;10.03;;;8.13;;
30335;SDS011;17142;47.990;7.846;2023-02-15T19:30:00;9.77;;;7.70;;
30335;SDS011;17142;47.990;7.846;2023-02-15T19:32:37;15.37;;;8.17;;
30335;SDS011;17142;47.990;7.846;2023-02-15T19:35:02;10.37;;;8.50;;
30335;SDS011;17142;47.990;7.846;2023-02-15T19:37:32;10.50;;;8.07;;
30335;SDS011;17142;47.990;7.846;2023-02-15T19:40:02;13.03;;;8.37;;
30335;SDS011;17142;47.990;7.846;2023-02-15T19:42:32;12.73;;;8.70;;
30335;SDS011;17142;47.990;7.846;2023-02-15T19:44:58;9.10;;;6.63;;
30335;SDS011;17142;47.990;7.846;2023-02-15T19:47:26;9.87;;;7.50;;
30335;SDS011;17142;47.990;7.846;2023-02-15T19:49:54;12.27;;;7.57;;
30335;SDS011;17142;47.990;7.846;2023-02-15T19:52:27;8.00;;;7.17;;
30335;SDS011;17142;47.990;7.846;2023-02-15T19:54:53;11.57;;;8.40;;
30335;SDS011;17142;47.990;7.846;2023-02-15T19:57:21;10.23;;;7.03;;
30335;SDS011;17142;47.990;7.846;2023-02-15T19:59:49;8.53;;;7.10;;
30335;SDS011;17142;47.990;7.846;2023-02-15T20:02:15;8.97;;;6.47;;
30335;SDS011;17142;47.990;7.846;2023-02-15T20:04:44;9.20;;;7.50;;
30335;SDS011;17142;47.990;7.846;2023-02-15T20:07:14;8.67;;;7.10;;
30335;SDS011;17142;47.990;7.846;2023-02-15T20:09:48;10.40;;;7.47;;
30335;SDS011;17142;47.990;7.846;2023-02-15T20:12:19;9.70;;;6.77;;
30335;SDS011;17142;47.990;7.846;2023-02-15T20:14:48;10.20;;;7.90;;
30335;SDS011;17142;47.990;7.846;2023-02-15T20:17:16;8.80;;;6.40;;
30335;SDS011;17142;47.990;7.846;2023-02-15T20:19:44;8.63;;;6.10;;
30335;SDS011;17142;47.990;7.846;2023-02-15T20:22:19;8.43;;;6.90;;
30335;SDS011;17142;47.990;7.846;2023-02-15T20:24:47;9.60;;;6.60;;
30335;SDS011;17142;47.990;7.846;2023-02-15T20:27:14;18.40;;;10.10;;
30335;SDS011;17142;47.990;7.846;2023-02-15T20:29:41;8.50;;;7.37;;
30335;SDS011;17142;47.990;7.846;2023-02-15T20:32:09;7.73;;;6.87;;
30335;SDS011;17142;47.990;7.846;2023-02-15T20:34:35;9.90;;;6.40;;
30335;SDS011;17142;47.990;7.846;2023-02-15T20:37:01;8.80;;;6.97;;
30335;SDS011;17142;47.990;7.846;2023-02-15T20:39:27;14.40;;;7.77;;
30335;SDS011;17142;47.990;7.846;2023-02-15T20:41:56;8.60;;;7.13;;
30335;SDS011;17142;47.990;7.846;2023-02-15T20:44:26;10.87;;;7.17;;
30335;SDS011;17142;47.990;7.846;2023-02-15T20:46:55;8.83;;;6.13;;
30335;SDS011;17142;47.990;7.846;2023-02-15T20:49:22;8.13;;;5.60;;
30335;SDS011;17142;47.990;7.846;2023-02-15T20:51:50;6.83;;;6.13;;
30335;SDS011;17142;47.990;7.846;2023-02-15T20:54:19;11.33;;;6.00;;
30335;SDS011;17142;47.990;7.846;2023-02-15T20:56:49;6.50;;;5.47;;
30335;SDS011;17142;47.990;7.846;2023-02-15T20:59:30;8.50;;;6.43;;
30335;SDS011;17142;47.990;7.846;2023-02-15T21:02:01;9.27;;;6.47;;
30335;SDS011;17142;47.990;7.846;2023-02-15T21:04:43;7.07;;;5.73;;
30335;SDS011;17142;47.990;7.846;2023-02-15T21:07:18;8.03;;;5.00;;
30335;SDS011;17142;47.990;7.846;2023-02-15T21:09:47;5.77;;;4.83;;
30335;SDS011;17142;47.990;7.846;2023-02-15T21:12:17;6.53;;;5.00;;
30335;SDS011;17142;47.990;7.846;2023-02-15T21:14:48;9.20;;;5.90;;
30335;SDS011;17142;47.990;7.846;2023-02-15T21:17:15;10.60;;;5.80;;
30335;SDS011;17142;47.990;7.846;2023-02-15T21:19:43;6.10;;;5.50;;
30335;SDS011;17142;47.990;7.846;2023-02-15T21:22:12;7.70;;;5.77;;
30335;SDS011;17142;47.990;7.846;2023-02-15T21:24:50;8.97;;;6.37;;
30335;SDS011;17142;47.990;7.846;2023-02-15T21:27:18;7.63;;;6.80;;
30335;SDS011;17142;47.990;7.846;2023-02-15T21:29:44;7.50;;;5.87;;
30335;SDS011;17142;47.990;7.846;2023-02-15T21:32:13;7.70;;;5.13;;
30335;SDS011;17142;47.990;7.846;2023-02-15T21:34:38;8.57;;;5.50;;
30335;SDS011;17142;47.990;7.846;2023-02-15T21:37:04;6.47;;;4.70;;
30335;SDS011;17142;47.990;7.846;2023-02-15T21:39:55;8.67;;;6.50;;
30335;SDS011;17142;47.990;7.846;2023-02-15T21:42:21;5.70;;;4.67;;
30335;SDS011;17142;47.990;7.846;2023-02-15T21:45:12;7.30;;;5.53;;
30335;SDS011;17142;47.990;7.846;2023-02-15T21:48:00;8.10;;;5.70;;
30335;SDS011;17142;47.990;7.846;2023-02-15T21:50:25;7.60;;;5.73;;
30335;SDS011;17142;47.990;7.846;2023-02-15T21:53:30;8.17;;;4.20;;
30335;SDS011;17142;47.990;7.846;2023-02-15T21:55:56;6.30;;;4.20;;
30335;SDS011;17142;47.990;7.846;2023-02-15T21:58:30;6.10;;;4.90;;
30335;SDS011;17142;47.990;7.846;2023-02-15T22:00:57;6.50;;;4.50;;
30335;SDS011;17142;47.990;7.846;2023-02-15T22:03:25;8.07;;;5.27;;
30335;SDS011;17142;47.990;7.846;2023-02-15T22:05:55;8.67;;;4.93;;
30335;SDS011;17142;47.990;7.846;2023-02-15T22:08:21;5.60;;;4.87;;
30335;SDS011;17142;47.990;7.846;2023-02-15T22:10:47;7.37;;;5.20;;
30335;SDS011;17142;47.990;7.846;2023-02-15T22:13:19;6.20;;;5.23;;
30335;SDS011;17142;47.990;7.846;2023-02-15T22:15:50;6.43;;;4.27;;
30335;SDS011;17142;47.990;7.846;2023-02-15T22:18:20;6.03;;;5.27;;
30335;SDS011;17142;47.990;7.846;2023-02-15T22:20:53;8.70;;;6.13;;
30335;SDS011;17142;47.990;7.846;2023-02-15T22:23:21;6.90;;;4.90;;
30335;SDS011;17142;47.990;7.846;2023-02-15T22:25:54;9.03;;;5.50;;
30335;SDS011;17142;47.990;7.846;2023-02-15T22:28:43;4.90;;;3.97;;
30335;SDS011;17142;47.990;7.846;2023-02-15T22:31:12;4.50;;;4.20;;
30335;SDS011;17142;47.990;7.846;2023-02-15T22:33:39;6.13;;;3.93;;
30335;SDS011;17142;47.990;7.846;2023-02-15T22:36:08;6.90;;;4.43;;
30335;SDS011;17142;47.990;7.846;2023-02-15T22:38:49;5.67;;;4.90;;
30335;SDS011;17142;47.990;7.846;2023-02-15T22:41:15;6.67;;;4.13;;
30335;SDS011;17142;47.990;7.846;2023-02-15T22:43:42;9.07;;;5.37;;
30335;SDS011;17142;47.990;7.846;2023-02-15T22:46:16;4.30;;;3.90;;
30335;SDS011;17142;47.990;7.846;2023-02-15T22:48:44;6.80;;;4.90;;
30335;SDS011;17142;47.990;7.846;2023-02-15T22:51:16;5.53;;;4.70;;
30335;SDS011;17142;47.990;7.846;2023-02-15T22:53:45;5.47;;;4.77;;
30335;SDS011;17142;47.990;7.846;2023-02-15T22:56:24;4.80;;;4.23;;
30335;SDS011;17142;47.990;7.846;2023-02-15T22:58:58;5.20;;;3.93;;
30335;SDS011;17142;47.990;7.846;2023-02-15T23:01:30;7.53;;;5.20;;
30335;SDS011;17142;47.990;7.846;2023-02-15T23:03:57;6.60;;;4.80;;
30335;SDS011;17142;47.990;7.846;2023-02-15T23:06:22;4.80;;;3.90;;
30335;SDS011;17142;47.990;7.846;2023-02-15T23:08:48;4.50;;;4.03;;
30335;SDS011;17142;47.990;7.846;2023-02-15T23:11:14;8.40;;;4.53;;
30335;SDS011;17142;47.990;7.846;2023-02-15T23:13:40;7.03;;;3.77;;
30335;SDS011;17142;47.990;7.846;2023-02-15T23:16:06;6.07;;;4.60;;
30335;SDS011;17142;47.990;7.846;2023-02-15T23:18:37;7.07;;;4.03;;
30335;SDS011;17142;47.990;7.846;2023-02-15T23:23:40;3.73;;;3.27;;
